sensor_id;sensor_type;location;lat;lon;timestamp;temperature;humidity
1704;DHT22;849;48.780;9.216;2022-10-31T00:02:00;15.70;99.90
1704;DHT22;849;48.780;9.216;2022-10-31T00:04:26;15.70;99.90
1704;DHT22;849;48.780;9.216;2022-10-31T00:06:51;15.50;99.90
1704;DHT22;849;48.780;9.216;2022-10-31T00:09:17;15.40;99.90
1704;DHT22;849;48.780;9.216;2022-10-31T00:11:42;15.50;99.90
1704;DHT22;849;48.780;9.216;2022-10-31T00:14:08;15.50;99.90
1704;DHT22;849;48.780;9.216;2022-10-31T00:16:34;15.60;99.90
1704;DHT22;849;48.780;9.216;2022-10-31T00:19:01;15.50;99.90
1704;DHT22;849;48.780;9.216;2022-10-31T00:21:29;15.50;99.90
1704;DHT22;849;48.780;9.216;2022-10-31T00:23:55;15.50;99.90
1704;DHT22;849;48.780;9.216;2022-10-31T00:26:20;15.40;99.90
1704;DHT22;849;48.780;9.216;2022-10-31T00:28:46;15.40;99.90
1704;DHT22;849;48.780;9.216;2022-10-31T00:31:12;15.40;99.90
1704;DHT22;849;48.780;9.216;2022-10-31T00:33:39;15.40;99.90
1704;DHT22;849;48.780;9.216;2022-10-31T00:36:06;15.40;99.90
1704;DHT22;849;48.780;9.216;2022-10-31T00:38:32;15.40;99.90
1704;DHT22;849;48.780;9.216;2022-10-31T00:40:58;15.40;99.90
1704;DHT22;849;48.780;9.216;2022-10-31T00:43:24;15.40;99.90
1704;DHT22;849;48.780;9.216;2022-10-31T00:45:50;15.40;99.90
1704;DHT22;849;48.780;9.216;2022-10-31T00:48:15;15.50;99.90
1704;DHT22;849;48.780;9.216;2022-10-31T00:50:41;15.40;99.90
1704;DHT22;849;48.780;9.216;2022-10-31T00:53:07;15.40;99.90
1704;DHT22;849;48.780;9.216;2022-10-31T00:55:33;15.40;99.90
1704;DHT22;849;48.780;9.216;2022-10-31T00:57:59;15.50;99.90
1704;DHT22;849;48.780;9.216;2022-10-31T01:00:25;15.40;99.90
1704;DHT22;849;48.780;9.216;2022-10-31T01:02:51;15.40;99.90
1704;DHT22;849;48.780;9.216;2022-10-31T01:05:16;15.40;99.90
1704;DHT22;849;48.780;9.216;2022-10-31T01:07:42;15.40;99.90
1704;DHT22;849;48.780;9.216;2022-10-31T01:10:10;15.30;99.90
1704;DHT22;849;48.780;9.216;2022-10-31T01:12:41;15.40;99.90
1704;DHT22;849;48.780;9.216;2022-10-31T01:15:08;15.40;99.90
1704;DHT22;849;48.780;9.216;2022-10-31T01:17:34;15.30;99.90
1704;DHT22;849;48.780;9.216;2022-10-31T01:20:01;15.30;99.90
1704;DHT22;849;48.780;9.216;2022-10-31T01:22:27;15.20;99.90
1704;DHT22;849;48.780;9.216;2022-10-31T01:24:52;15.30;99.90
1704;DHT22;849;48.780;9.216;2022-10-31T01:27:18;15.30;99.90
1704;DHT22;849;48.780;9.216;2022-10-31T01:29:44;15.30;99.90
1704;DHT22;849;48.780;9.216;2022-10-31T01:32:09;15.30;99.90
1704;DHT22;849;48.780;9.216;2022-10-31T01:34:35;15.20;99.90
1704;DHT22;849;48.780;9.216;2022-10-31T01:37:00;15.20;99.90
1704;DHT22;849;48.780;9.216;2022-10-31T01:39:26;15.30;99.90
1704;DHT22;849;48.780;9.216;2022-10-31T01:41:53;15.20;99.90
1704;DHT22;849;48.780;9.216;2022-10-31T01:52:14;15.20;99.90
1704;DHT22;849;48.780;9.216;2022-10-31T01:54:45;15.10;99.90
1704;DHT22;849;48.780;9.216;2022-10-31T01:57:14;15.20;99.90
1704;DHT22;849;48.780;9.216;2022-10-31T01:59:45;15.20;99.90
1704;DHT22;849;48.780;9.216;2022-10-31T02:02:13;15.10;99.90
1704;DHT22;849;48.780;9.216;2022-10-31T02:04:39;15.10;99.90
1704;DHT22;849;48.780;9.216;2022-10-31T02:07:09;15.10;99.90
1704;DHT22;849;48.780;9.216;2022-10-31T02:09:36;15.10;99.90
1704;DHT22;849;48.780;9.216;2022-10-31T02:12:03;15.20;99.90
1704;DHT22;849;48.780;9.216;2022-10-31T02:14:30;15.10;99.90
1704;DHT22;849;48.780;9.216;2022-10-31T02:16:57;15.00;99.90
1704;DHT22;849;48.780;9.216;2022-10-31T02:19:34;15.00;99.90
1704;DHT22;849;48.780;9.216;2022-10-31T02:22:13;15.00;99.90
1704;DHT22;849;48.780;9.216;2022-10-31T02:30:12;15.10;99.90
1704;DHT22;849;48.780;9.216;2022-10-31T02:38:42;15.00;99.90
1704;DHT22;849;48.780;9.216;2022-10-31T02:49:01;14.90;99.90
1704;DHT22;849;48.780;9.216;2022-10-31T02:51:28;14.90;99.90
1704;DHT22;849;48.780;9.216;2022-10-31T02:53:53;14.90;99.90
1704;DHT22;849;48.780;9.216;2022-10-31T02:56:19;15.00;99.90
1704;DHT22;849;48.780;9.216;2022-10-31T02:58:49;14.90;99.90
1704;DHT22;849;48.780;9.216;2022-10-31T03:06:54;14.80;99.90
1704;DHT22;849;48.780;9.216;2022-10-31T03:09:46;14.80;99.90
1704;DHT22;849;48.780;9.216;2022-10-31T03:12:19;14.80;99.90
1704;DHT22;849;48.780;9.216;2022-10-31T03:18:03;14.80;99.90
1704;DHT22;849;48.780;9.216;2022-10-31T03:20:44;14.80;99.90
1704;DHT22;849;48.780;9.216;2022-10-31T03:23:15;14.90;99.90
1704;DHT22;849;48.780;9.216;2022-10-31T03:25:42;14.80;99.90
1704;DHT22;849;48.780;9.216;2022-10-31T03:28:12;14.80;99.90
1704;DHT22;849;48.780;9.216;2022-10-31T03:30:41;14.80;99.90
1704;DHT22;849;48.780;9.216;2022-10-31T03:33:13;14.80;99.90
1704;DHT22;849;48.780;9.216;2022-10-31T03:35:42;14.90;99.90
1704;DHT22;849;48.780;9.216;2022-10-31T03:38:11;14.80;99.90
1704;DHT22;849;48.780;9.216;2022-10-31T03:40:38;14.90;99.90
1704;DHT22;849;48.780;9.216;2022-10-31T03:43:11;14.90;99.90
1704;DHT22;849;48.780;9.216;2022-10-31T03:45:43;15.00;99.90
1704;DHT22;849;48.780;9.216;2022-10-31T03:48:11;14.90;99.90
1704;DHT22;849;48.780;9.216;2022-10-31T03:51:00;14.80;99.90
1704;DHT22;849;48.780;9.216;2022-10-31T03:53:34;14.70;99.90
1704;DHT22;849;48.780;9.216;2022-10-31T03:56:09;14.70;99.90
1704;DHT22;849;48.780;9.216;2022-10-31T03:59:00;14.70;99.90
1704;DHT22;849;48.780;9.216;2022-10-31T04:01:30;14.60;99.90
1704;DHT22;849;48.780;9.216;2022-10-31T04:03:57;14.60;99.90
1704;DHT22;849;48.780;9.216;2022-10-31T04:06:24;14.70;99.90
1704;DHT22;849;48.780;9.216;2022-10-31T04:08:57;14.70;99.90
1704;DHT22;849;48.780;9.216;2022-10-31T04:11:28;14.70;99.90
1704;DHT22;849;48.780;9.216;2022-10-31T04:13:55;14.70;99.90
1704;DHT22;849;48.780;9.216;2022-10-31T04:16:23;14.60;99.90
1704;DHT22;849;48.780;9.216;2022-10-31T04:18:49;14.60;99.90
1704;DHT22;849;48.780;9.216;2022-10-31T04:21:15;14.50;99.90
1704;DHT22;849;48.780;9.216;2022-10-31T04:23:42;14.50;99.90
1704;DHT22;849;48.780;9.216;2022-10-31T04:26:10;14.50;99.90
1704;DHT22;849;48.780;9.216;2022-10-31T04:28:36;14.60;99.90
1704;DHT22;849;48.780;9.216;2022-10-31T04:31:02;14.60;99.90
1704;DHT22;849;48.780;9.216;2022-10-31T04:33:28;14.60;99.90
1704;DHT22;849;48.780;9.216;2022-10-31T04:35:54;14.60;99.90
1704;DHT22;849;48.780;9.216;2022-10-31T04:38:19;14.60;99.90
1704;DHT22;849;48.780;9.216;2022-10-31T04:40:45;14.50;99.90
1704;DHT22;849;48.780;9.216;2022-10-31T04:43:11;14.50;99.90
1704;DHT22;849;48.780;9.216;2022-10-31T04:45:37;14.40;99.90
1704;DHT22;849;48.780;9.216;2022-10-31T04:48:03;14.40;99.90
1704;DHT22;849;48.780;9.216;2022-10-31T04:50:29;14.50;99.90
1704;DHT22;849;48.780;9.216;2022-10-31T04:52:54;14.40;99.90
1704;DHT22;849;48.780;9.216;2022-10-31T04:55:20;14.40;99.90
1704;DHT22;849;48.780;9.216;2022-10-31T04:57:48;14.40;99.90
1704;DHT22;849;48.780;9.216;2022-10-31T05:00:16;14.30;99.90
1704;DHT22;849;48.780;9.216;2022-10-31T05:02:50;14.50;99.90
1704;DHT22;849;48.780;9.216;2022-10-31T05:05:18;14.50;99.90
1704;DHT22;849;48.780;9.216;2022-10-31T05:07:46;14.30;99.90
1704;DHT22;849;48.780;9.216;2022-10-31T05:10:17;14.20;99.90
1704;DHT22;849;48.780;9.216;2022-10-31T05:12:47;14.30;99.90
1704;DHT22;849;48.780;9.216;2022-10-31T05:15:13;14.30;99.90
1704;DHT22;849;48.780;9.216;2022-10-31T05:17:39;14.20;99.90
1704;DHT22;849;48.780;9.216;2022-10-31T05:20:05;14.20;99.90
1704;DHT22;849;48.780;9.216;2022-10-31T05:22:31;14.30;99.90
1704;DHT22;849;48.780;9.216;2022-10-31T05:24:56;14.20;99.90
1704;DHT22;849;48.780;9.216;2022-10-31T05:27:22;14.10;99.90
1704;DHT22;849;48.780;9.216;2022-10-31T05:29:48;14.10;99.90
1704;DHT22;849;48.780;9.216;2022-10-31T05:32:13;14.00;99.90
1704;DHT22;849;48.780;9.216;2022-10-31T05:34:39;14.00;99.90
1704;DHT22;849;48.780;9.216;2022-10-31T05:37:04;14.00;99.90
1704;DHT22;849;48.780;9.216;2022-10-31T05:39:30;13.90;99.90
1704;DHT22;849;48.780;9.216;2022-10-31T05:41:56;13.90;99.90
1704;DHT22;849;48.780;9.216;2022-10-31T05:44:21;13.90;99.90
1704;DHT22;849;48.780;9.216;2022-10-31T05:46:47;14.00;99.90
1704;DHT22;849;48.780;9.216;2022-10-31T05:49:13;14.00;99.90
1704;DHT22;849;48.780;9.216;2022-10-31T05:51:38;13.90;99.90
1704;DHT22;849;48.780;9.216;2022-10-31T05:54:04;14.00;99.90
1704;DHT22;849;48.780;9.216;2022-10-31T05:56:30;13.90;99.90
1704;DHT22;849;48.780;9.216;2022-10-31T05:58:55;13.90;99.90
1704;DHT22;849;48.780;9.216;2022-10-31T06:01:21;13.90;99.90
1704;DHT22;849;48.780;9.216;2022-10-31T06:03:47;13.90;99.90
1704;DHT22;849;48.780;9.216;2022-10-31T06:06:12;13.90;99.90
1704;DHT22;849;48.780;9.216;2022-10-31T06:08:38;13.90;99.90
1704;DHT22;849;48.780;9.216;2022-10-31T06:11:04;13.90;99.90
1704;DHT22;849;48.780;9.216;2022-10-31T06:13:29;13.90;99.90
1704;DHT22;849;48.780;9.216;2022-10-31T06:15:55;13.90;99.90
1704;DHT22;849;48.780;9.216;2022-10-31T06:18:21;13.90;99.90
1704;DHT22;849;48.780;9.216;2022-10-31T06:20:46;13.90;99.90
1704;DHT22;849;48.780;9.216;2022-10-31T06:23:12;13.80;99.90
1704;DHT22;849;48.780;9.216;2022-10-31T06:25:38;13.80;99.90
1704;DHT22;849;48.780;9.216;2022-10-31T06:28:04;13.80;99.90
1704;DHT22;849;48.780;9.216;2022-10-31T06:30:29;13.80;99.90
1704;DHT22;849;48.780;9.216;2022-10-31T06:33:01;13.90;99.90
1704;DHT22;849;48.780;9.216;2022-10-31T06:35:27;13.90;99.90
1704;DHT22;849;48.780;9.216;2022-10-31T06:37:53;13.90;99.90
1704;DHT22;849;48.780;9.216;2022-10-31T06:40:19;13.80;99.90
1704;DHT22;849;48.780;9.216;2022-10-31T06:42:45;13.80;99.90
1704;DHT22;849;48.780;9.216;2022-10-31T06:45:11;14.00;99.90
1704;DHT22;849;48.780;9.216;2022-10-31T06:47:36;13.90;99.90
1704;DHT22;849;48.780;9.216;2022-10-31T06:50:02;13.90;99.90
1704;DHT22;849;48.780;9.216;2022-10-31T06:52:28;13.90;99.90
1704;DHT22;849;48.780;9.216;2022-10-31T06:54:53;13.80;99.90
1704;DHT22;849;48.780;9.216;2022-10-31T06:57:19;13.80;99.90
1704;DHT22;849;48.780;9.216;2022-10-31T06:59:45;13.80;99.90
1704;DHT22;849;48.780;9.216;2022-10-31T07:02:10;13.80;99.90
1704;DHT22;849;48.780;9.216;2022-10-31T07:04:36;13.90;99.90
1704;DHT22;849;48.780;9.216;2022-10-31T07:07:02;14.00;99.90
1704;DHT22;849;48.780;9.216;2022-10-31T07:09:28;14.10;99.90
1704;DHT22;849;48.780;9.216;2022-10-31T07:11:54;14.00;99.90
1704;DHT22;849;48.780;9.216;2022-10-31T07:14:19;14.20;99.90
1704;DHT22;849;48.780;9.216;2022-10-31T07:16:49;14.20;99.90
1704;DHT22;849;48.780;9.216;2022-10-31T07:19:16;14.10;99.90
1704;DHT22;849;48.780;9.216;2022-10-31T07:21:41;14.00;99.90
1704;DHT22;849;48.780;9.216;2022-10-31T07:24:07;14.00;99.90
1704;DHT22;849;48.780;9.216;2022-10-31T07:26:33;14.00;99.90
1704;DHT22;849;48.780;9.216;2022-10-31T07:28:58;14.10;99.90
1704;DHT22;849;48.780;9.216;2022-10-31T07:31:24;14.20;99.90
1704;DHT22;849;48.780;9.216;2022-10-31T07:33:50;14.30;99.90
1704;DHT22;849;48.780;9.216;2022-10-31T07:36:18;14.20;99.90
1704;DHT22;849;48.780;9.216;2022-10-31T07:38:44;14.20;99.90
1704;DHT22;849;48.780;9.216;2022-10-31T07:41:10;14.30;99.90
1704;DHT22;849;48.780;9.216;2022-10-31T07:43:36;14.20;99.90
1704;DHT22;849;48.780;9.216;2022-10-31T07:46:02;14.20;99.90
1704;DHT22;849;48.780;9.216;2022-10-31T07:48:28;14.20;99.90
1704;DHT22;849;48.780;9.216;2022-10-31T07:50:55;14.30;99.90
1704;DHT22;849;48.780;9.216;2022-10-31T07:53:20;14.30;99.90
1704;DHT22;849;48.780;9.216;2022-10-31T07:55:46;14.30;99.90
1704;DHT22;849;48.780;9.216;2022-10-31T07:58:14;14.30;99.90
1704;DHT22;849;48.780;9.216;2022-10-31T08:00:42;14.40;99.90
1704;DHT22;849;48.780;9.216;2022-10-31T08:03:10;14.40;99.90
1704;DHT22;849;48.780;9.216;2022-10-31T08:05:36;14.50;99.90
1704;DHT22;849;48.780;9.216;2022-10-31T08:08:03;14.50;99.90
1704;DHT22;849;48.780;9.216;2022-10-31T08:10:33;14.50;99.90
1704;DHT22;849;48.780;9.216;2022-10-31T08:13:07;14.50;99.90
1704;DHT22;849;48.780;9.216;2022-10-31T08:15:33;14.50;99.90
1704;DHT22;849;48.780;9.216;2022-10-31T08:18:02;14.50;99.90
1704;DHT22;849;48.780;9.216;2022-10-31T08:20:28;14.60;99.90
1704;DHT22;849;48.780;9.216;2022-10-31T08:23:00;14.70;99.90
1704;DHT22;849;48.780;9.216;2022-10-31T08:25:28;14.60;99.90
1704;DHT22;849;48.780;9.216;2022-10-31T08:27:55;14.70;99.90
1704;DHT22;849;48.780;9.216;2022-10-31T08:30:22;14.70;99.90
1704;DHT22;849;48.780;9.216;2022-10-31T08:32:58;14.70;99.90
1704;DHT22;849;48.780;9.216;2022-10-31T08:35:23;14.80;99.90
1704;DHT22;849;48.780;9.216;2022-10-31T08:37:53;14.70;99.90
1704;DHT22;849;48.780;9.216;2022-10-31T08:40:20;14.80;99.90
1704;DHT22;849;48.780;9.216;2022-10-31T08:42:45;14.80;99.90
1704;DHT22;849;48.780;9.216;2022-10-31T08:45:11;14.90;99.90
1704;DHT22;849;48.780;9.216;2022-10-31T08:47:37;14.90;99.90
1704;DHT22;849;48.780;9.216;2022-10-31T08:50:03;15.10;99.90
1704;DHT22;849;48.780;9.216;2022-10-31T08:52:28;15.10;99.90
1704;DHT22;849;48.780;9.216;2022-10-31T08:54:54;15.10;99.90
1704;DHT22;849;48.780;9.216;2022-10-31T08:57:20;15.00;99.90
1704;DHT22;849;48.780;9.216;2022-10-31T08:59:45;15.00;99.90
1704;DHT22;849;48.780;9.216;2022-10-31T09:02:11;15.00;99.90
1704;DHT22;849;48.780;9.216;2022-10-31T09:04:36;15.00;99.90
1704;DHT22;849;48.780;9.216;2022-10-31T09:07:02;15.10;99.90
1704;DHT22;849;48.780;9.216;2022-10-31T09:09:28;15.10;99.90
1704;DHT22;849;48.780;9.216;2022-10-31T09:11:53;15.00;99.90
1704;DHT22;849;48.780;9.216;2022-10-31T09:14:19;15.10;99.90
1704;DHT22;849;48.780;9.216;2022-10-31T09:16:44;15.30;99.90
1704;DHT22;849;48.780;9.216;2022-10-31T09:19:10;15.40;99.90
1704;DHT22;849;48.780;9.216;2022-10-31T09:21:36;15.40;99.90
1704;DHT22;849;48.780;9.216;2022-10-31T09:24:01;15.50;99.90
1704;DHT22;849;48.780;9.216;2022-10-31T09:26:27;15.60;99.90
1704;DHT22;849;48.780;9.216;2022-10-31T09:28:53;15.80;99.90
1704;DHT22;849;48.780;9.216;2022-10-31T09:31:18;15.70;99.90
1704;DHT22;849;48.780;9.216;2022-10-31T09:33:44;15.60;99.90
1704;DHT22;849;48.780;9.216;2022-10-31T09:36:10;15.40;99.90
1704;DHT22;849;48.780;9.216;2022-10-31T09:38:35;15.50;99.90
1704;DHT22;849;48.780;9.216;2022-10-31T09:50:29;15.60;99.90
1704;DHT22;849;48.780;9.216;2022-10-31T09:53:03;15.50;99.90
1704;DHT22;849;48.780;9.216;2022-10-31T09:55:40;15.70;99.90
1704;DHT22;849;48.780;9.216;2022-10-31T09:58:18;15.70;99.90
1704;DHT22;849;48.780;9.216;2022-10-31T10:00:46;15.90;99.90
1704;DHT22;849;48.780;9.216;2022-10-31T10:06:04;15.80;99.90
1704;DHT22;849;48.780;9.216;2022-10-31T10:08:33;15.70;99.90
1704;DHT22;849;48.780;9.216;2022-10-31T10:11:22;15.90;99.90
1704;DHT22;849;48.780;9.216;2022-10-31T10:17:35;16.00;99.90
1704;DHT22;849;48.780;9.216;2022-10-31T10:22:43;16.20;99.90
1704;DHT22;849;48.780;9.216;2022-10-31T10:25:24;16.30;99.90
1704;DHT22;849;48.780;9.216;2022-10-31T10:31:01;16.20;99.90
1704;DHT22;849;48.780;9.216;2022-10-31T10:36:33;16.30;99.90
1704;DHT22;849;48.780;9.216;2022-10-31T10:39:14;16.10;99.90
1704;DHT22;849;48.780;9.216;2022-10-31T10:41:46;16.20;99.90
1704;DHT22;849;48.780;9.216;2022-10-31T10:44:12;16.10;99.90
1704;DHT22;849;48.780;9.216;2022-10-31T10:46:48;16.40;99.90
1704;DHT22;849;48.780;9.216;2022-10-31T10:55:55;16.60;99.90
1704;DHT22;849;48.780;9.216;2022-10-31T10:58:22;16.20;99.90
1704;DHT22;849;48.780;9.216;2022-10-31T11:00:54;16.30;99.90
1704;DHT22;849;48.780;9.216;2022-10-31T11:03:20;16.40;99.90
1704;DHT22;849;48.780;9.216;2022-10-31T11:05:55;16.40;99.90
1704;DHT22;849;48.780;9.216;2022-10-31T11:08:34;16.40;99.90
1704;DHT22;849;48.780;9.216;2022-10-31T11:11:08;16.40;99.90
1704;DHT22;849;48.780;9.216;2022-10-31T11:13:35;16.40;99.90
1704;DHT22;849;48.780;9.216;2022-10-31T11:16:10;16.50;99.90
1704;DHT22;849;48.780;9.216;2022-10-31T11:18:42;16.90;99.90
1704;DHT22;849;48.780;9.216;2022-10-31T11:21:20;16.80;99.90
1704;DHT22;849;48.780;9.216;2022-10-31T11:23:46;16.80;99.90
1704;DHT22;849;48.780;9.216;2022-10-31T11:26:30;16.60;99.90
1704;DHT22;849;48.780;9.216;2022-10-31T11:28:57;16.90;99.90
1704;DHT22;849;48.780;9.216;2022-10-31T11:31:24;16.80;99.90
1704;DHT22;849;48.780;9.216;2022-10-31T11:34:05;16.90;99.90
1704;DHT22;849;48.780;9.216;2022-10-31T11:36:35;16.90;99.90
1704;DHT22;849;48.780;9.216;2022-10-31T11:39:03;17.20;99.90
1704;DHT22;849;48.780;9.216;2022-10-31T11:41:34;17.10;99.90
1704;DHT22;849;48.780;9.216;2022-10-31T11:44:25;17.10;99.90
1704;DHT22;849;48.780;9.216;2022-10-31T11:46:55;17.00;99.90
1704;DHT22;849;48.780;9.216;2022-10-31T11:49:32;17.10;99.90
1704;DHT22;849;48.780;9.216;2022-10-31T11:52:02;17.10;99.90
1704;DHT22;849;48.780;9.216;2022-10-31T11:54:41;17.10;99.90
1704;DHT22;849;48.780;9.216;2022-10-31T12:00:00;17.50;99.90
1704;DHT22;849;48.780;9.216;2022-10-31T12:02:26;17.70;99.90
1704;DHT22;849;48.780;9.216;2022-10-31T12:05:23;18.00;99.90
1704;DHT22;849;48.780;9.216;2022-10-31T12:07:50;17.90;99.90
1704;DHT22;849;48.780;9.216;2022-10-31T12:10:16;17.60;99.90
1704;DHT22;849;48.780;9.216;2022-10-31T12:15:31;17.90;99.90
1704;DHT22;849;48.780;9.216;2022-10-31T12:18:27;18.10;99.90
1704;DHT22;849;48.780;9.216;2022-10-31T12:21:20;17.80;99.90
1704;DHT22;849;48.780;9.216;2022-10-31T12:24:56;17.70;99.90
1704;DHT22;849;48.780;9.216;2022-10-31T12:29:57;17.70;99.90
1704;DHT22;849;48.780;9.216;2022-10-31T12:32:33;18.20;99.90
1704;DHT22;849;48.780;9.216;2022-10-31T12:38:19;18.10;99.90
1704;DHT22;849;48.780;9.216;2022-10-31T12:43:54;18.20;99.90
1704;DHT22;849;48.780;9.216;2022-10-31T12:46:54;18.00;99.90
1704;DHT22;849;48.780;9.216;2022-10-31T12:49:42;18.10;99.90
1704;DHT22;849;48.780;9.216;2022-10-31T12:52:21;17.90;99.90
1704;DHT22;849;48.780;9.216;2022-10-31T13:00:27;17.80;99.90
1704;DHT22;849;48.780;9.216;2022-10-31T13:05:46;18.20;99.90
1704;DHT22;849;48.780;9.216;2022-10-31T13:08:40;18.10;99.90
1704;DHT22;849;48.780;9.216;2022-10-31T13:11:22;18.00;99.90
1704;DHT22;849;48.780;9.216;2022-10-31T13:16:20;18.00;99.90
1704;DHT22;849;48.780;9.216;2022-10-31T13:19:02;18.10;99.90
1704;DHT22;849;48.780;9.216;2022-10-31T13:22:04;18.10;99.90
1704;DHT22;849;48.780;9.216;2022-10-31T13:24:39;18.10;99.90
1704;DHT22;849;48.780;9.216;2022-10-31T13:27:22;18.10;99.90
1704;DHT22;849;48.780;9.216;2022-10-31T13:30:02;18.10;99.90
1704;DHT22;849;48.780;9.216;2022-10-31T13:32:44;18.20;99.90
1704;DHT22;849;48.780;9.216;2022-10-31T13:35:29;18.30;99.90
1704;DHT22;849;48.780;9.216;2022-10-31T13:38:14;18.30;99.90
1704;DHT22;849;48.780;9.216;2022-10-31T13:40:54;18.30;99.90
1704;DHT22;849;48.780;9.216;2022-10-31T13:45:51;18.40;99.90
1704;DHT22;849;48.780;9.216;2022-10-31T13:48:40;18.30;99.90
1704;DHT22;849;48.780;9.216;2022-10-31T13:51:10;18.20;99.90
1704;DHT22;849;48.780;9.216;2022-10-31T13:53:43;18.20;99.90
1704;DHT22;849;48.780;9.216;2022-10-31T13:58:38;18.40;99.90
1704;DHT22;849;48.780;9.216;2022-10-31T14:03:36;18.40;99.90
1704;DHT22;849;48.780;9.216;2022-10-31T14:06:03;18.40;99.90
1704;DHT22;849;48.780;9.216;2022-10-31T14:08:32;18.50;99.90
1704;DHT22;849;48.780;9.216;2022-10-31T14:10:59;18.70;99.90
1704;DHT22;849;48.780;9.216;2022-10-31T14:13:31;18.80;99.90
1704;DHT22;849;48.780;9.216;2022-10-31T14:16:03;18.90;99.90
1704;DHT22;849;48.780;9.216;2022-10-31T14:18:32;18.90;99.90
1704;DHT22;849;48.780;9.216;2022-10-31T14:20:58;18.90;99.90
1704;DHT22;849;48.780;9.216;2022-10-31T14:29:34;18.90;99.90
1704;DHT22;849;48.780;9.216;2022-10-31T14:34:56;19.00;99.90
1704;DHT22;849;48.780;9.216;2022-10-31T14:46:06;19.20;99.90
1704;DHT22;849;48.780;9.216;2022-10-31T14:48:47;19.20;99.90
1704;DHT22;849;48.780;9.216;2022-10-31T14:51:20;19.20;99.90
1704;DHT22;849;48.780;9.216;2022-10-31T14:53:52;19.10;99.90
1704;DHT22;849;48.780;9.216;2022-10-31T14:56:42;19.10;99.90
1704;DHT22;849;48.780;9.216;2022-10-31T14:59:13;19.00;99.90
1704;DHT22;849;48.780;9.216;2022-10-31T15:01:56;18.90;99.90
1704;DHT22;849;48.780;9.216;2022-10-31T15:04:27;18.90;99.90
1704;DHT22;849;48.780;9.216;2022-10-31T15:07:16;19.00;99.90
1704;DHT22;849;48.780;9.216;2022-10-31T15:09:43;19.10;99.90
1704;DHT22;849;48.780;9.216;2022-10-31T15:12:27;19.10;99.90
1704;DHT22;849;48.780;9.216;2022-10-31T15:14:53;19.00;99.90
1704;DHT22;849;48.780;9.216;2022-10-31T15:17:20;18.90;99.90
1704;DHT22;849;48.780;9.216;2022-10-31T15:19:46;18.80;99.90
1704;DHT22;849;48.780;9.216;2022-10-31T15:22:23;18.70;99.90
1704;DHT22;849;48.780;9.216;2022-10-31T15:24:51;18.70;99.90
1704;DHT22;849;48.780;9.216;2022-10-31T15:27:21;18.70;99.90
1704;DHT22;849;48.780;9.216;2022-10-31T15:29:54;18.60;99.90
1704;DHT22;849;48.780;9.216;2022-10-31T15:32:29;18.60;99.90
1704;DHT22;849;48.780;9.216;2022-10-31T15:34:55;18.50;99.90
1704;DHT22;849;48.780;9.216;2022-10-31T15:37:24;18.50;99.90
1704;DHT22;849;48.780;9.216;2022-10-31T15:39:50;18.50;99.90
1704;DHT22;849;48.780;9.216;2022-10-31T15:42:27;18.40;99.90
1704;DHT22;849;48.780;9.216;2022-10-31T15:45:00;18.40;99.90
1704;DHT22;849;48.780;9.216;2022-10-31T15:47:26;18.30;99.90
1704;DHT22;849;48.780;9.216;2022-10-31T15:49:56;18.20;99.90
1704;DHT22;849;48.780;9.216;2022-10-31T15:52:29;18.10;99.90
1704;DHT22;849;48.780;9.216;2022-10-31T15:55:18;18.00;99.90
1704;DHT22;849;48.780;9.216;2022-10-31T15:57:47;17.90;99.90
1704;DHT22;849;48.780;9.216;2022-10-31T16:00:30;17.80;99.90
1704;DHT22;849;48.780;9.216;2022-10-31T16:05:47;17.70;99.90
1704;DHT22;849;48.780;9.216;2022-10-31T16:10:51;17.60;99.90
1704;DHT22;849;48.780;9.216;2022-10-31T16:13:17;17.50;99.90
1704;DHT22;849;48.780;9.216;2022-10-31T16:15:49;17.60;99.90
1704;DHT22;849;48.780;9.216;2022-10-31T16:18:15;17.60;99.90
1704;DHT22;849;48.780;9.216;2022-10-31T16:20:51;17.60;99.90
1704;DHT22;849;48.780;9.216;2022-10-31T16:23:19;17.50;99.90
1704;DHT22;849;48.780;9.216;2022-10-31T16:25:46;17.40;99.90
1704;DHT22;849;48.780;9.216;2022-10-31T16:28:30;17.30;99.90
1704;DHT22;849;48.780;9.216;2022-10-31T16:30:57;17.40;99.90
1704;DHT22;849;48.780;9.216;2022-10-31T16:33:31;17.40;99.90
1704;DHT22;849;48.780;9.216;2022-10-31T16:38:59;17.30;99.90
1704;DHT22;849;48.780;9.216;2022-10-31T16:41:25;17.10;99.90
1704;DHT22;849;48.780;9.216;2022-10-31T16:43:51;17.00;99.90
1704;DHT22;849;48.780;9.216;2022-10-31T16:46:27;17.10;99.90
1704;DHT22;849;48.780;9.216;2022-10-31T16:48:54;17.00;99.90
1704;DHT22;849;48.780;9.216;2022-10-31T16:51:20;16.90;99.90
1704;DHT22;849;48.780;9.216;2022-10-31T16:53:45;16.90;99.90
1704;DHT22;849;48.780;9.216;2022-10-31T16:56:22;16.90;99.90
1704;DHT22;849;48.780;9.216;2022-10-31T16:58:49;16.90;99.90
1704;DHT22;849;48.780;9.216;2022-10-31T17:01:15;16.80;99.90
1704;DHT22;849;48.780;9.216;2022-10-31T17:03:41;16.80;99.90
1704;DHT22;849;48.780;9.216;2022-10-31T17:06:11;16.90;99.90
1704;DHT22;849;48.780;9.216;2022-10-31T17:08:37;16.90;99.90
1704;DHT22;849;48.780;9.216;2022-10-31T17:11:02;16.70;99.90
1704;DHT22;849;48.780;9.216;2022-10-31T17:13:30;16.60;99.90
1704;DHT22;849;48.780;9.216;2022-10-31T17:15:59;16.60;99.90
1704;DHT22;849;48.780;9.216;2022-10-31T17:18:25;16.70;99.90
1704;DHT22;849;48.780;9.216;2022-10-31T17:20:55;16.60;99.90
1704;DHT22;849;48.780;9.216;2022-10-31T17:23:22;16.50;99.90
1704;DHT22;849;48.780;9.216;2022-10-31T17:25:47;16.50;99.90
1704;DHT22;849;48.780;9.216;2022-10-31T17:28:14;16.50;99.90
1704;DHT22;849;48.780;9.216;2022-10-31T17:30:41;16.50;99.90
1704;DHT22;849;48.780;9.216;2022-10-31T17:33:13;16.40;99.90
1704;DHT22;849;48.780;9.216;2022-10-31T17:35:40;16.40;99.90
1704;DHT22;849;48.780;9.216;2022-10-31T17:38:06;16.30;99.90
1704;DHT22;849;48.780;9.216;2022-10-31T17:40:32;16.40;99.90
1704;DHT22;849;48.780;9.216;2022-10-31T17:42:58;16.40;99.90
1704;DHT22;849;48.780;9.216;2022-10-31T17:45:25;16.40;99.90
1704;DHT22;849;48.780;9.216;2022-10-31T17:47:51;16.30;99.90
1704;DHT22;849;48.780;9.216;2022-10-31T17:50:19;16.10;99.90
1704;DHT22;849;48.780;9.216;2022-10-31T17:52:45;16.20;99.90
1704;DHT22;849;48.780;9.216;2022-10-31T17:55:11;16.30;99.90
1704;DHT22;849;48.780;9.216;2022-10-31T17:57:38;16.30;99.90
1704;DHT22;849;48.780;9.216;2022-10-31T18:00:06;16.30;99.90
1704;DHT22;849;48.780;9.216;2022-10-31T18:02:33;16.20;99.90
1704;DHT22;849;48.780;9.216;2022-10-31T18:04:58;16.10;99.90
1704;DHT22;849;48.780;9.216;2022-10-31T18:07:27;15.90;99.90
1704;DHT22;849;48.780;9.216;2022-10-31T18:09:52;16.00;99.90
1704;DHT22;849;48.780;9.216;2022-10-31T18:12:18;16.00;99.90
1704;DHT22;849;48.780;9.216;2022-10-31T18:14:44;15.90;99.90
1704;DHT22;849;48.780;9.216;2022-10-31T18:17:09;15.90;99.90
1704;DHT22;849;48.780;9.216;2022-10-31T18:19:35;16.00;99.90
1704;DHT22;849;48.780;9.216;2022-10-31T18:22:00;16.10;99.90
1704;DHT22;849;48.780;9.216;2022-10-31T18:24:26;16.10;99.90
1704;DHT22;849;48.780;9.216;2022-10-31T18:26:55;16.00;99.90
1704;DHT22;849;48.780;9.216;2022-10-31T18:29:20;16.00;99.90
1704;DHT22;849;48.780;9.216;2022-10-31T18:31:46;16.00;99.90
1704;DHT22;849;48.780;9.216;2022-10-31T18:34:17;15.90;99.90
1704;DHT22;849;48.780;9.216;2022-10-31T18:36:43;15.90;99.90
1704;DHT22;849;48.780;9.216;2022-10-31T18:39:09;15.90;99.90